sensor_id;sensor_type;location;lat;lon;timestamp;P1;durP1;ratioP1;P2;durP2;ratioP2
47113;SDS011;32867;51.556;6.832;2023-04-23T00:04:35;34.47;;;23.98;;
47113;SDS011;32867;51.556;6.832;2023-04-23T00:09:37;28.98;;;20.98;;
47113;SDS011;32867;51.556;6.832;2023-04-23T00:14:38;25.90;;;19.58;;
47113;SDS011;32867;51.556;6.832;2023-04-23T00:19:39;30.80;;;22.38;;
47113;SDS011;32867;51.556;6.832;2023-04-23T00:24:39;33.92;;;24.98;;
47113;SDS011;32867;51.556;6.832;2023-04-23T00:29:40;41.10;;;27.80;;
47113;SDS011;32867;51.556;6.832;2023-04-23T00:34:42;41.28;;;27.95;;
47113;SDS011;32867;51.556;6.832;2023-04-23T00:39:43;38.42;;;26.23;;
47113;SDS011;32867;51.556;6.832;2023-04-23T00:44:43;38.85;;;25.65;;
47113;SDS011;32867;51.556;6.832;2023-04-23T00:49:44;39.55;;;27.77;;
47113;SDS011;32867;51.556;6.832;2023-04-23T00:54:45;37.95;;;26.27;;
47113;SDS011;32867;51.556;6.832;2023-04-23T00:59:46;40.30;;;27.38;;
47113;SDS011;32867;51.556;6.832;2023-04-23T01:04:47;38.33;;;26.15;;
47113;SDS011;32867;51.556;6.832;2023-04-23T01:09:50;31.13;;;22.05;;
47113;SDS011;32867;51.556;6.832;2023-04-23T01:14:51;36.53;;;25.50;;
47113;SDS011;32867;51.556;6.832;2023-04-23T01:19:52;35.95;;;26.02;;
47113;SDS011;32867;51.556;6.832;2023-04-23T01:24:53;36.20;;;25.15;;
47113;SDS011;32867;51.556;6.832;2023-04-23T01:29:54;38.72;;;26.95;;
47113;SDS011;32867;51.556;6.832;2023-04-23T01:34:55;37.25;;;26.52;;
47113;SDS011;32867;51.556;6.832;2023-04-23T01:39:57;32.10;;;23.00;;
47113;SDS011;32867;51.556;6.832;2023-04-23T01:44:58;31.00;;;21.92;;
47113;SDS011;32867;51.556;6.832;2023-04-23T01:49:59;37.20;;;25.95;;
47113;SDS011;32867;51.556;6.832;2023-04-23T01:54:59;31.70;;;23.30;;
47113;SDS011;32867;51.556;6.832;2023-04-23T02:00:08;35.05;;;24.67;;
47113;SDS011;32867;51.556;6.832;2023-04-23T02:05:14;31.65;;;22.52;;
47113;SDS011;32867;51.556;6.832;2023-04-23T02:10:17;34.33;;;23.67;;
47113;SDS011;32867;51.556;6.832;2023-04-23T02:15:18;35.67;;;25.67;;
47113;SDS011;32867;51.556;6.832;2023-04-23T02:20:20;35.63;;;24.13;;
47113;SDS011;32867;51.556;6.832;2023-04-23T02:25:21;35.95;;;26.00;;
47113;SDS011;32867;51.556;6.832;2023-04-23T02:30:22;37.78;;;26.55;;
47113;SDS011;32867;51.556;6.832;2023-04-23T02:35:24;31.50;;;23.33;;
47113;SDS011;32867;51.556;6.832;2023-04-23T02:40:25;31.33;;;23.17;;
47113;SDS011;32867;51.556;6.832;2023-04-23T02:45:26;29.58;;;22.02;;
47113;SDS011;32867;51.556;6.832;2023-04-23T02:50:27;32.58;;;23.10;;
47113;SDS011;32867;51.556;6.832;2023-04-23T02:55:27;29.20;;;21.25;;
47113;SDS011;32867;51.556;6.832;2023-04-23T03:00:28;25.85;;;19.13;;
47113;SDS011;32867;51.556;6.832;2023-04-23T03:05:31;26.42;;;19.83;;
47113;SDS011;32867;51.556;6.832;2023-04-23T03:10:31;28.75;;;22.42;;
47113;SDS011;32867;51.556;6.832;2023-04-23T03:15:32;28.42;;;21.33;;
47113;SDS011;32867;51.556;6.832;2023-04-23T03:20:33;29.45;;;21.90;;
47113;SDS011;32867;51.556;6.832;2023-04-23T03:25:34;28.63;;;22.23;;
47113;SDS011;32867;51.556;6.832;2023-04-23T03:30:35;29.27;;;21.83;;
47113;SDS011;32867;51.556;6.832;2023-04-23T03:35:36;29.40;;;22.85;;
47113;SDS011;32867;51.556;6.832;2023-04-23T03:40:40;27.48;;;21.05;;
47113;SDS011;32867;51.556;6.832;2023-04-23T03:45:42;28.02;;;19.85;;
47113;SDS011;32867;51.556;6.832;2023-04-23T03:50:43;29.63;;;22.08;;
47113;SDS011;32867;51.556;6.832;2023-04-23T03:55:57;29.02;;;21.23;;
47113;SDS011;32867;51.556;6.832;2023-04-23T04:00:59;24.98;;;20.02;;
47113;SDS011;32867;51.556;6.832;2023-04-23T04:06:00;24.77;;;19.17;;
47113;SDS011;32867;51.556;6.832;2023-04-23T04:11:01;24.45;;;18.80;;
47113;SDS011;32867;51.556;6.832;2023-04-23T04:16:02;26.90;;;20.50;;
47113;SDS011;32867;51.556;6.832;2023-04-23T04:21:03;25.67;;;19.92;;
47113;SDS011;32867;51.556;6.832;2023-04-23T04:26:03;25.17;;;19.85;;
47113;SDS011;32867;51.556;6.832;2023-04-23T04:31:04;24.70;;;19.52;;
47113;SDS011;32867;51.556;6.832;2023-04-23T04:36:06;25.42;;;19.63;;
47113;SDS011;32867;51.556;6.832;2023-04-23T04:41:08;26.40;;;20.70;;
47113;SDS011;32867;51.556;6.832;2023-04-23T04:46:10;24.23;;;18.10;;
47113;SDS011;32867;51.556;6.832;2023-04-23T04:51:11;26.15;;;19.40;;
47113;SDS011;32867;51.556;6.832;2023-04-23T04:56:11;22.98;;;18.83;;
47113;SDS011;32867;51.556;6.832;2023-04-23T05:01:12;21.88;;;17.35;;
47113;SDS011;32867;51.556;6.832;2023-04-23T05:06:13;23.10;;;18.98;;
47113;SDS011;32867;51.556;6.832;2023-04-23T05:11:14;21.65;;;17.25;;
47113;SDS011;32867;51.556;6.832;2023-04-23T05:16:16;23.80;;;17.90;;
47113;SDS011;32867;51.556;6.832;2023-04-23T05:21:17;25.00;;;19.75;;
47113;SDS011;32867;51.556;6.832;2023-04-23T05:26:18;23.27;;;18.25;;
47113;SDS011;32867;51.556;6.832;2023-04-23T05:31:20;24.60;;;18.75;;
47113;SDS011;32867;51.556;6.832;2023-04-23T05:36:20;24.75;;;18.77;;
47113;SDS011;32867;51.556;6.832;2023-04-23T05:41:21;23.50;;;18.27;;
47113;SDS011;32867;51.556;6.832;2023-04-23T05:46:22;21.15;;;16.75;;
47113;SDS011;32867;51.556;6.832;2023-04-23T05:51:22;21.00;;;17.23;;
47113;SDS011;32867;51.556;6.832;2023-04-23T05:56:23;20.23;;;16.00;;
47113;SDS011;32867;51.556;6.832;2023-04-23T06:01:23;19.25;;;16.70;;
47113;SDS011;32867;51.556;6.832;2023-04-23T06:06:24;20.23;;;16.33;;
47113;SDS011;32867;51.556;6.832;2023-04-23T06:11:25;18.77;;;14.57;;
47113;SDS011;32867;51.556;6.832;2023-04-23T06:16:26;17.65;;;13.73;;
47113;SDS011;32867;51.556;6.832;2023-04-23T06:21:26;17.30;;;13.93;;
47113;SDS011;32867;51.556;6.832;2023-04-23T06:26:27;14.20;;;11.93;;
47113;SDS011;32867;51.556;6.832;2023-04-23T06:31:32;13.60;;;11.45;;
47113;SDS011;32867;51.556;6.832;2023-04-23T06:36:33;13.65;;;10.85;;
47113;SDS011;32867;51.556;6.832;2023-04-23T06:41:34;14.88;;;12.27;;
47113;SDS011;32867;51.556;6.832;2023-04-23T06:46:55;13.38;;;11.15;;
47113;SDS011;32867;51.556;6.832;2023-04-23T06:51:55;15.55;;;12.77;;
47113;SDS011;32867;51.556;6.832;2023-04-23T06:56:56;14.82;;;11.68;;
47113;SDS011;32867;51.556;6.832;2023-04-23T07:01:57;12.63;;;10.23;;
47113;SDS011;32867;51.556;6.832;2023-04-23T07:06:57;11.45;;;10.18;;
47113;SDS011;32867;51.556;6.832;2023-04-23T07:11:59;12.68;;;10.77;;
47113;SDS011;32867;51.556;6.832;2023-04-23T07:17:01;14.13;;;10.75;;
47113;SDS011;32867;51.556;6.832;2023-04-23T07:22:02;12.93;;;10.38;;
47113;SDS011;32867;51.556;6.832;2023-04-23T07:27:02;13.80;;;9.65;;
47113;SDS011;32867;51.556;6.832;2023-04-23T07:32:03;13.15;;;9.40;;
47113;SDS011;32867;51.556;6.832;2023-04-23T07:37:04;11.02;;;9.05;;
47113;SDS011;32867;51.556;6.832;2023-04-23T07:42:04;13.68;;;9.50;;
47113;SDS011;32867;51.556;6.832;2023-04-23T07:47:05;11.20;;;9.02;;
47113;SDS011;32867;51.556;6.832;2023-04-23T07:52:06;10.68;;;8.48;;
47113;SDS011;32867;51.556;6.832;2023-04-23T07:57:07;13.65;;;8.55;;
47113;SDS011;32867;51.556;6.832;2023-04-23T08:02:07;12.00;;;7.72;;
47113;SDS011;32867;51.556;6.832;2023-04-23T08:07:08;9.35;;;7.60;;
47113;SDS011;32867;51.556;6.832;2023-04-23T08:12:09;12.77;;;7.75;;
47113;SDS011;32867;51.556;6.832;2023-04-23T08:17:10;8.18;;;5.97;;
47113;SDS011;32867;51.556;6.832;2023-04-23T08:22:11;11.73;;;6.68;;
47113;SDS011;32867;51.556;6.832;2023-04-23T08:27:12;10.88;;;6.38;;
47113;SDS011;32867;51.556;6.832;2023-04-23T08:32:13;11.65;;;6.43;;
47113;SDS011;32867;51.556;6.832;2023-04-23T08:37:13;8.32;;;5.55;;
47113;SDS011;32867;51.556;6.832;2023-04-23T08:42:19;10.40;;;6.30;;
47113;SDS011;32867;51.556;6.832;2023-04-23T08:47:26;9.73;;;5.32;;
47113;SDS011;32867;51.556;6.832;2023-04-23T08:52:30;9.65;;;5.75;;
47113;SDS011;32867;51.556;6.832;2023-04-23T08:57:33;9.48;;;4.57;;
47113;SDS011;32867;51.556;6.832;2023-04-23T09:02:34;9.13;;;4.28;;
47113;SDS011;32867;51.556;6.832;2023-04-23T09:07:40;8.07;;;4.85;;
47113;SDS011;32867;51.556;6.832;2023-04-23T09:12:42;8.90;;;4.95;;
47113;SDS011;32867;51.556;6.832;2023-04-23T09:17:44;10.18;;;4.68;;
47113;SDS011;32867;51.556;6.832;2023-04-23T09:22:47;10.75;;;4.80;;
47113;SDS011;32867;51.556;6.832;2023-04-23T09:27:54;9.88;;;5.10;;
47113;SDS011;32867;51.556;6.832;2023-04-23T09:32:57;9.20;;;4.57;;
47113;SDS011;32867;51.556;6.832;2023-04-23T09:37:58;9.07;;;4.35;;
47113;SDS011;32867;51.556;6.832;2023-04-23T09:43:05;8.00;;;4.37;;
47113;SDS011;32867;51.556;6.832;2023-04-23T09:48:09;5.65;;;3.75;;
47113;SDS011;32867;51.556;6.832;2023-04-23T09:53:09;7.10;;;3.60;;
47113;SDS011;32867;51.556;6.832;2023-04-23T09:58:13;7.88;;;3.30;;
47113;SDS011;32867;51.556;6.832;2023-04-23T10:03:14;7.22;;;3.42;;
47113;SDS011;32867;51.556;6.832;2023-04-23T10:08:18;7.93;;;3.50;;
47113;SDS011;32867;51.556;6.832;2023-04-23T10:13:19;7.00;;;3.35;;
47113;SDS011;32867;51.556;6.832;2023-04-23T10:18:20;6.97;;;2.70;;
47113;SDS011;32867;51.556;6.832;2023-04-23T10:23:20;6.28;;;2.30;;
47113;SDS011;32867;51.556;6.832;2023-04-23T10:28:22;6.40;;;2.60;;
47113;SDS011;32867;51.556;6.832;2023-04-23T10:33:28;4.57;;;2.20;;
47113;SDS011;32867;51.556;6.832;2023-04-23T10:38:31;6.63;;;3.08;;
47113;SDS011;32867;51.556;6.832;2023-04-23T10:43:31;7.65;;;2.80;;
47113;SDS011;32867;51.556;6.832;2023-04-23T10:48:51;7.57;;;2.83;;
47113;SDS011;32867;51.556;6.832;2023-04-23T10:54:15;6.60;;;2.67;;
47113;SDS011;32867;51.556;6.832;2023-04-23T10:59:21;5.85;;;2.22;;
47113;SDS011;32867;51.556;6.832;2023-04-23T11:04:22;5.93;;;2.28;;
47113;SDS011;32867;51.556;6.832;2023-04-23T11:09:28;5.90;;;1.80;;
47113;SDS011;32867;51.556;6.832;2023-04-23T11:14:36;4.53;;;1.83;;
47113;SDS011;32867;51.556;6.832;2023-04-23T11:19:40;4.68;;;1.95;;
47113;SDS011;32867;51.556;6.832;2023-04-23T11:25:01;4.43;;;2.17;;
47113;SDS011;32867;51.556;6.832;2023-04-23T11:30:03;5.10;;;1.90;;
47113;SDS011;32867;51.556;6.832;2023-04-23T11:35:04;5.28;;;1.90;;
47113;SDS011;32867;51.556;6.832;2023-04-23T11:40:07;6.10;;;1.92;;
47113;SDS011;32867;51.556;6.832;2023-04-23T11:50:23;4.72;;;1.75;;
47113;SDS011;32867;51.556;6.832;2023-04-23T11:55:25;4.35;;;1.75;;
47113;SDS011;32867;51.556;6.832;2023-04-23T12:00:28;8.07;;;2.10;;
47113;SDS011;32867;51.556;6.832;2023-04-23T12:05:29;4.28;;;1.90;;
47113;SDS011;32867;51.556;6.832;2023-04-23T12:10:58;5.18;;;1.90;;
47113;SDS011;32867;51.556;6.832;2023-04-23T12:16:01;7.03;;;1.90;;
47113;SDS011;32867;51.556;6.832;2023-04-23T12:21:13;5.20;;;1.80;;
47113;SDS011;32867;51.556;6.832;2023-04-23T12:26:14;13.57;;;7.70;;
47113;SDS011;32867;51.556;6.832;2023-04-23T12:31:19;4.60;;;2.08;;
47113;SDS011;32867;51.556;6.832;2023-04-23T12:36:25;3.90;;;1.52;;
47113;SDS011;32867;51.556;6.832;2023-04-23T12:41:28;4.68;;;1.60;;
47113;SDS011;32867;51.556;6.832;2023-04-23T12:46:29;4.32;;;1.25;;
47113;SDS011;32867;51.556;6.832;2023-04-23T12:51:29;3.40;;;1.20;;
47113;SDS011;32867;51.556;6.832;2023-04-23T12:56:30;6.00;;;1.60;;
47113;SDS011;32867;51.556;6.832;2023-04-23T13:01:31;5.40;;;1.50;;
47113;SDS011;32867;51.556;6.832;2023-04-23T13:06:32;2.88;;;1.20;;
47113;SDS011;32867;51.556;6.832;2023-04-23T13:11:32;5.50;;;1.50;;
47113;SDS011;32867;51.556;6.832;2023-04-23T13:16:33;4.88;;;1.50;;
47113;SDS011;32867;51.556;6.832;2023-04-23T13:21:34;4.22;;;1.30;;
47113;SDS011;32867;51.556;6.832;2023-04-23T13:26:35;4.15;;;1.40;;
47113;SDS011;32867;51.556;6.832;2023-04-23T13:31:36;4.88;;;1.52;;
47113;SDS011;32867;51.556;6.832;2023-04-23T13:36:36;5.13;;;1.40;;
47113;SDS011;32867;51.556;6.832;2023-04-23T13:41:40;3.75;;;1.20;;
47113;SDS011;32867;51.556;6.832;2023-04-23T13:46:41;4.97;;;1.50;;
47113;SDS011;32867;51.556;6.832;2023-04-23T13:51:42;3.92;;;1.30;;
47113;SDS011;32867;51.556;6.832;2023-04-23T13:56:42;3.20;;;1.60;;
47113;SDS011;32867;51.556;6.832;2023-04-23T14:01:43;2.97;;;1.30;;
47113;SDS011;32867;51.556;6.832;2023-04-23T14:06:45;4.07;;;1.40;;
47113;SDS011;32867;51.556;6.832;2023-04-23T14:11:46;2.80;;;1.30;;
47113;SDS011;32867;51.556;6.832;2023-04-23T14:16:47;3.78;;;1.30;;
47113;SDS011;32867;51.556;6.832;2023-04-23T14:21:47;3.60;;;1.15;;
47113;SDS011;32867;51.556;6.832;2023-04-23T14:26:48;3.55;;;1.30;;
47113;SDS011;32867;51.556;6.832;2023-04-23T14:31:50;4.28;;;1.40;;
47113;SDS011;32867;51.556;6.832;2023-04-23T14:36:51;3.40;;;1.13;;
47113;SDS011;32867;51.556;6.832;2023-04-23T14:41:52;3.45;;;1.30;;
47113;SDS011;32867;51.556;6.832;2023-04-23T14:46:53;3.60;;;1.30;;
47113;SDS011;32867;51.556;6.832;2023-04-23T14:51:54;3.97;;;1.20;;
47113;SDS011;32867;51.556;6.832;2023-04-23T14:56:56;3.58;;;1.20;;
47113;SDS011;32867;51.556;6.832;2023-04-23T15:01:58;3.08;;;1.13;;
47113;SDS011;32867;51.556;6.832;2023-04-23T15:07:00;4.63;;;1.60;;
47113;SDS011;32867;51.556;6.832;2023-04-23T15:12:00;3.75;;;1.85;;
47113;SDS011;32867;51.556;6.832;2023-04-23T15:17:05;3.22;;;1.08;;
47113;SDS011;32867;51.556;6.832;2023-04-23T15:22:05;3.45;;;1.33;;
47113;SDS011;32867;51.556;6.832;2023-04-23T15:27:06;2.03;;;1.05;;
47113;SDS011;32867;51.556;6.832;2023-04-23T15:32:07;2.13;;;1.00;;
47113;SDS011;32867;51.556;6.832;2023-04-23T15:37:08;3.13;;;1.10;;
47113;SDS011;32867;51.556;6.832;2023-04-23T15:42:09;4.40;;;1.35;;
47113;SDS011;32867;51.556;6.832;2023-04-23T15:47:10;2.90;;;1.30;;
47113;SDS011;32867;51.556;6.832;2023-04-23T15:52:11;3.17;;;1.10;;
47113;SDS011;32867;51.556;6.832;2023-04-23T15:57:11;3.45;;;1.20;;
47113;SDS011;32867;51.556;6.832;2023-04-23T16:02:12;2.40;;;1.25;;
47113;SDS011;32867;51.556;6.832;2023-04-23T16:07:13;4.70;;;1.60;;
47113;SDS011;32867;51.556;6.832;2023-04-23T16:12:13;4.93;;;1.80;;
47113;SDS011;32867;51.556;6.832;2023-04-23T16:17:14;8.13;;;2.50;;
47113;SDS011;32867;51.556;6.832;2023-04-23T16:22:15;6.68;;;2.05;;
47113;SDS011;32867;51.556;6.832;2023-04-23T16:27:16;7.13;;;2.53;;
47113;SDS011;32867;51.556;6.832;2023-04-23T16:32:17;5.57;;;2.38;;
47113;SDS011;32867;51.556;6.832;2023-04-23T16:37:17;6.78;;;2.22;;
47113;SDS011;32867;51.556;6.832;2023-04-23T16:42:18;5.25;;;1.80;;
47113;SDS011;32867;51.556;6.832;2023-04-23T16:47:19;4.60;;;1.80;;
47113;SDS011;32867;51.556;6.832;2023-04-23T16:52:19;3.78;;;1.60;;
47113;SDS011;32867;51.556;6.832;2023-04-23T16:57:20;3.42;;;1.90;;
47113;SDS011;32867;51.556;6.832;2023-04-23T17:02:21;5.35;;;2.38;;
47113;SDS011;32867;51.556;6.832;2023-04-23T17:07:21;7.32;;;2.65;;
47113;SDS011;32867;51.556;6.832;2023-04-23T17:12:22;7.30;;;3.33;;
47113;SDS011;32867;51.556;6.832;2023-04-23T17:17:23;6.57;;;2.95;;
47113;SDS011;32867;51.556;6.832;2023-04-23T17:22:23;6.35;;;3.38;;
47113;SDS011;32867;51.556;6.832;2023-04-23T17:27:24;6.95;;;3.50;;
47113;SDS011;32867;51.556;6.832;2023-04-23T17:32:25;9.82;;;4.40;;
47113;SDS011;32867;51.556;6.832;2023-04-23T17:37:26;7.70;;;3.78;;
47113;SDS011;32867;51.556;6.832;2023-04-23T17:42:27;6.32;;;3.25;;
47113;SDS011;32867;51.556;6.832;2023-04-23T17:47:28;6.60;;;3.63;;
47113;SDS011;32867;51.556;6.832;2023-04-23T17:52:28;8.00;;;4.05;;
47113;SDS011;32867;51.556;6.832;2023-04-23T17:57:29;6.30;;;3.75;;
47113;SDS011;32867;51.556;6.832;2023-04-23T18:02:30;5.15;;;3.50;;
47113;SDS011;32867;51.556;6.832;2023-04-23T18:07:30;7.75;;;3.80;;
47113;SDS011;32867;51.556;6.832;2023-04-23T18:12:31;7.03;;;4.20;;
47113;SDS011;32867;51.556;6.832;2023-04-23T18:17:32;6.88;;;4.05;;
47113;SDS011;32867;51.556;6.832;2023-04-23T18:22:33;7.78;;;3.45;;
47113;SDS011;32867;51.556;6.832;2023-04-23T18:27:35;5.85;;;3.60;;
47113;SDS011;32867;51.556;6.832;2023-04-23T18:32:40;5.13;;;3.65;;
47113;SDS011;32867;51.556;6.832;2023-04-23T18:37:53;6.43;;;3.22;;
47113;SDS011;32867;51.556;6.832;2023-04-23T18:43:01;5.53;;;3.10;;
47113;SDS011;32867;51.556;6.832;2023-04-23T18:48:02;5.88;;;3.35;;
47113;SDS011;32867;51.556;6.832;2023-04-23T18:53:23;5.93;;;3.65;;
47113;SDS011;32867;51.556;6.832;2023-04-23T18:58:24;7.65;;;3.80;;
47113;SDS011;32867;51.556;6.832;2023-04-23T19:03:24;6.13;;;2.55;;
47113;SDS011;32867;51.556;6.832;2023-04-23T19:08:25;4.85;;;2.65;;
47113;SDS011;32867;51.556;6.832;2023-04-23T19:13:29;3.60;;;2.28;;
47113;SDS011;32867;51.556;6.832;2023-04-23T19:18:29;4.30;;;2.03;;
47113;SDS011;32867;51.556;6.832;2023-04-23T19:23:30;3.38;;;2.00;;
47113;SDS011;32867;51.556;6.832;2023-04-23T19:28:31;3.22;;;1.80;;
47113;SDS011;32867;51.556;6.832;2023-04-23T19:33:31;2.65;;;1.70;;
47113;SDS011;32867;51.556;6.832;2023-04-23T19:38:33;3.28;;;1.50;;
47113;SDS011;32867;51.556;6.832;2023-04-23T19:43:33;2.50;;;1.50;;
47113;SDS011;32867;51.556;6.832;2023-04-23T19:48:34;1.83;;;1.30;;
47113;SDS011;32867;51.556;6.832;2023-04-23T19:53:35;1.67;;;1.27;;
47113;SDS011;32867;51.556;6.832;2023-04-23T19:58:36;3.20;;;1.60;;
47113;SDS011;32867;51.556;6.832;2023-04-23T20:03:36;3.67;;;1.92;;
47113;SDS011;32867;51.556;6.832;2023-04-23T20:08:38;2.58;;;1.50;;
47113;SDS011;32867;51.556;6.832;2023-04-23T20:14:02;2.88;;;1.52;;
47113;SDS011;32867;51.556;6.832;2023-04-23T20:19:03;2.17;;;1.40;;
47113;SDS011;32867;51.556;6.832;2023-04-23T20:24:08;2.22;;;1.23;;
47113;SDS011;32867;51.556;6.832;2023-04-23T20:29:09;2.50;;;1.20;;
47113;SDS011;32867;51.556;6.832;2023-04-23T20:34:10;3.65;;;1.05;;
47113;SDS011;32867;51.556;6.832;2023-04-23T20:39:11;1.02;;;0.80;;
47113;SDS011;32867;51.556;6.832;2023-04-23T20:44:12;3.20;;;1.20;;
47113;SDS011;32867;51.556;6.832;2023-04-23T20:49:13;1.60;;;1.00;;
47113;SDS011;32867;51.556;6.832;2023-04-23T20:54:14;1.02;;;0.60;;
47113;SDS011;32867;51.556;6.832;2023-04-23T20:59:15;0.70;;;0.70;;
47113;SDS011;32867;51.556;6.832;2023-04-23T21:04:15;3.45;;;0.90;;
47113;SDS011;32867;51.556;6.832;2023-04-23T21:09:16;1.52;;;0.98;;
47113;SDS011;32867;51.556;6.832;2023-04-23T21:14:17;1.70;;;0.93;;
47113;SDS011;32867;51.556;6.832;2023-04-23T21:19:17;1.80;;;1.00;;
47113;SDS011;32867;51.556;6.832;2023-04-23T21:24:18;1.70;;;0.90;;
47113;SDS011;32867;51.556;6.832;2023-04-23T21:29:19;0.80;;;0.80;;
47113;SDS011;32867;51.556;6.832;2023-04-23T21:34:19;1.17;;;1.00;;
47113;SDS011;32867;51.556;6.832;2023-04-23T21:39:21;3.55;;;1.20;;
47113;SDS011;32867;51.556;6.832;2023-04-23T21:44:21;3.03;;;1.30;;
47113;SDS011;32867;51.556;6.832;2023-04-23T21:49:22;2.30;;;1.30;;
47113;SDS011;32867;51.556;6.832;2023-04-23T21:54:22;2.60;;;1.40;;
47113;SDS011;32867;51.556;6.832;2023-04-23T21:59:23;3.47;;;1.60;;
47113;SDS011;32867;51.556;6.832;2023-04-23T22:04:24;3.75;;;1.30;;
47113;SDS011;32867;51.556;6.832;2023-04-23T22:09:26;2.85;;;1.40;;
47113;SDS011;32867;51.556;6.832;2023-04-23T22:14:27;7.38;;;1.50;;
47113;SDS011;32867;51.556;6.832;2023-04-23T22:19:27;3.17;;;1.50;;
47113;SDS011;32867;51.556;6.832;2023-04-23T22:24:30;2.42;;;1.25;;
47113;SDS011;32867;51.556;6.832;2023-04-23T22:29:30;3.35;;;1.25;;
47113;SDS011;32867;51.556;6.832;2023-04-23T22:34:31;3.25;;;1.40;;
47113;SDS011;32867;51.556;6.832;2023-04-23T22:39:31;4.05;;;1.38;;
47113;SDS011;32867;51.556;6.832;2023-04-23T22:44:32;3.75;;;1.70;;
47113;SDS011;32867;51.556;6.832;2023-04-23T22:49:33;3.95;;;1.77;;
47113;SDS011;32867;51.556;6.832;2023-04-23T22:54:34;2.78;;;1.50;;
47113;SDS011;32867;51.556;6.832;2023-04-23T22:59:35;2.70;;;1.40;;
47113;SDS011;32867;51.556;6.832;2023-04-23T23:04:35;3.63;;;1.60;;
47113;SDS011;32867;51.556;6.832;2023-04-23T23:09:37;2.95;;;1.42;;
47113;SDS011;32867;51.556;6.832;2023-04-23T23:14:38;4.22;;;1.73;;
47113;SDS011;32867;51.556;6.832;2023-04-23T23:19:39;4.35;;;1.80;;
47113;SDS011;32867;51.556;6.832;2023-04-23T23:24:40;3.95;;;1.70;;
47113;SDS011;32867;51.556;6.832;2023-04-23T23:29:40;2.28;;;1.35;;
47113;SDS011;32867;51.556;6.832;2023-04-23T23:34:41;5.10;;;1.67;;
47113;SDS011;32867;51.556;6.832;2023-04-23T23:39:41;3.25;;;1.50;;
47113;SDS011;32867;51.556;6.832;2023-04-23T23:44:42;3.75;;;1.50;;
47113;SDS011;32867;51.556;6.832;2023-04-23T23:49:43;3.05;;;1.60;;
47113;SDS011;32867;51.556;6.832;2023-04-23T23:54:43;2.65;;;1.30;;
47113;SDS011;32867;51.556;6.832;2023-04-23T23:59:44;3.47;;;1.55;;
